Etusivu
METAR-TAF:

METAR-TAF

Lentoasemat :

New Orleans, Louisiana, Yhdysvallat

Leveyspiiri: 29-59-34N, Pituuspiiri: 090-15-03W, korkeus merenpinnasta: 1 m

Tämänhetkinen sää

Tämä raportti tehtiin 56 minuuttia sitten, kello 07.53 UTC
tyyntä
Lämpötila 7°C
Kosteus 87%
Ilmanpaine 1030 hPa
Näkyvyys: 16.1 km
selkeää

METAR: KMSY 080753Z 00000KT 10SM CLR 07/05 A3043 RMK AO2 SLP307 T00720050

Aika: 02:49 (08:49 UTC)

Sääennuste

Tämä raportti tehtiin 3 tuntia ja 28 minuuttia sitten, kello 05.21 UTC
Ennuste voimassa 08. päivästä klo 06 UTC - 09. päivään klo 12 UTC
Tuuli 4 kn eri suunnista
Näkyvyys: 10 km
selkeää
From 08. päivästä klo 1600 UTC
Tuuli 8 kn idästä
Näkyvyys: 10 km
selkeää
From 09. päivästä klo 0000 UTC
Tuuli 5 kn idästä/kaakosta
Näkyvyys: 10 km
selkeää

TAF: KMSY 080521Z 0806/0912 VRB04KT P6SM SKC FM081600 09008KT P6SM SKC FM090000 12005KT P6SM SKC

Säähavainnot ja -ennusteet yli 4000 lentoasemalta (METAR- ja TAF-raportit).

Käytössä olevat sääasemat on merkitty karttaan keltaisilla ja punaisilla pisteillä.

Aseta hiiri pisteen päälle nähdäksesi sääaseman nimen.

Klikkaa sitten nähdäksesi säähavainnot ja -ennusteet.

Kartan vaihtaminen: klikkaa mustalla rastilla varustettuja vihreitä pisteitä, niin voit zoomata sisään; viivalla varustettua vihreää pistettä, niin voit zoomata ulos tai vihreitä nuolia, niin pääset viereisille kartoille.


METAR-TAF: